sensor_id;sensor_type;location;lat;lon;timestamp;temperature;humidity
28608;DHT22;15802;45.654;13.804;2023-01-23T00:00:51;5.20;99.90
28608;DHT22;15802;45.654;13.804;2023-01-23T00:03:19;5.20;99.90
28608;DHT22;15802;45.654;13.804;2023-01-23T00:05:58;5.20;99.90
28608;DHT22;15802;45.654;13.804;2023-01-23T00:08:25;5.10;99.90
28608;DHT22;15802;45.654;13.804;2023-01-23T00:10:52;5.20;99.90
28608;DHT22;15802;45.654;13.804;2023-01-23T00:13:18;5.20;99.90
28608;DHT22;15802;45.654;13.804;2023-01-23T00:15:45;5.20;99.90
28608;DHT22;15802;45.654;13.804;2023-01-23T00:18:14;5.30;99.90
28608;DHT22;15802;45.654;13.804;2023-01-23T00:20:40;5.30;99.90
28608;DHT22;15802;45.654;13.804;2023-01-23T00:23:10;5.40;99.90
28608;DHT22;15802;45.654;13.804;2023-01-23T00:25:36;5.50;99.90
28608;DHT22;15802;45.654;13.804;2023-01-23T00:28:03;5.50;99.90
28608;DHT22;15802;45.654;13.804;2023-01-23T00:30:32;5.60;99.90
28608;DHT22;15802;45.654;13.804;2023-01-23T00:32:57;5.60;99.90
28608;DHT22;15802;45.654;13.804;2023-01-23T00:35:23;5.60;99.90
28608;DHT22;15802;45.654;13.804;2023-01-23T00:37:49;5.50;99.90
28608;DHT22;15802;45.654;13.804;2023-01-23T00:40:18;5.50;99.90
28608;DHT22;15802;45.654;13.804;2023-01-23T00:42:44;5.50;99.90
28608;DHT22;15802;45.654;13.804;2023-01-23T00:45:10;5.60;99.90
28608;DHT22;15802;45.654;13.804;2023-01-23T00:47:36;5.50;99.90
28608;DHT22;15802;45.654;13.804;2023-01-23T00:50:05;5.60;99.90
28608;DHT22;15802;45.654;13.804;2023-01-23T00:52:30;5.60;99.90
28608;DHT22;15802;45.654;13.804;2023-01-23T00:54:56;5.60;99.90
28608;DHT22;15802;45.654;13.804;2023-01-23T00:57:22;5.60;99.90
28608;DHT22;15802;45.654;13.804;2023-01-23T00:59:51;5.70;99.90
28608;DHT22;15802;45.654;13.804;2023-01-23T01:02:17;5.60;99.90
28608;DHT22;15802;45.654;13.804;2023-01-23T01:04:43;5.60;99.90
28608;DHT22;15802;45.654;13.804;2023-01-23T01:07:11;5.70;99.90
28608;DHT22;15802;45.654;13.804;2023-01-23T01:09:37;5.70;99.90
28608;DHT22;15802;45.654;13.804;2023-01-23T01:12:03;5.70;99.90
28608;DHT22;15802;45.654;13.804;2023-01-23T01:14:31;5.70;99.90
28608;DHT22;15802;45.654;13.804;2023-01-23T01:16:57;5.70;99.90
28608;DHT22;15802;45.654;13.804;2023-01-23T01:19:23;5.70;99.90
28608;DHT22;15802;45.654;13.804;2023-01-23T01:21:49;5.70;99.90
28608;DHT22;15802;45.654;13.804;2023-01-23T01:24:14;5.70;99.90
28608;DHT22;15802;45.654;13.804;2023-01-23T01:26:40;5.70;99.90
28608;DHT22;15802;45.654;13.804;2023-01-23T01:29:06;5.80;99.90
28608;DHT22;15802;45.654;13.804;2023-01-23T01:31:32;5.70;99.90
28608;DHT22;15802;45.654;13.804;2023-01-23T01:33:58;5.70;99.90
28608;DHT22;15802;45.654;13.804;2023-01-23T01:36:24;5.70;99.90
28608;DHT22;15802;45.654;13.804;2023-01-23T01:38:51;5.70;99.90
28608;DHT22;15802;45.654;13.804;2023-01-23T01:41:17;5.70;99.90
28608;DHT22;15802;45.654;13.804;2023-01-23T01:43:43;5.70;99.90
28608;DHT22;15802;45.654;13.804;2023-01-23T01:46:23;5.80;99.90
28608;DHT22;15802;45.654;13.804;2023-01-23T01:49:11;5.80;99.90
28608;DHT22;15802;45.654;13.804;2023-01-23T01:51:52;5.80;99.90
28608;DHT22;15802;45.654;13.804;2023-01-23T01:54:28;5.80;99.90
28608;DHT22;15802;45.654;13.804;2023-01-23T01:57:04;5.70;99.90
28608;DHT22;15802;45.654;13.804;2023-01-23T01:59:37;5.70;99.90
28608;DHT22;15802;45.654;13.804;2023-01-23T02:02:15;5.80;99.90
28608;DHT22;15802;45.654;13.804;2023-01-23T02:04:47;5.90;99.90
28608;DHT22;15802;45.654;13.804;2023-01-23T02:07:24;5.90;99.90
28608;DHT22;15802;45.654;13.804;2023-01-23T02:09:53;5.90;99.90
28608;DHT22;15802;45.654;13.804;2023-01-23T02:12:20;6.00;99.90
28608;DHT22;15802;45.654;13.804;2023-01-23T02:14:49;5.90;99.90
28608;DHT22;15802;45.654;13.804;2023-01-23T02:17:15;5.90;99.90
28608;DHT22;15802;45.654;13.804;2023-01-23T02:19:55;6.00;99.90
28608;DHT22;15802;45.654;13.804;2023-01-23T02:22:37;6.00;99.90
28608;DHT22;15802;45.654;13.804;2023-01-23T02:25:25;6.00;99.90
28608;DHT22;15802;45.654;13.804;2023-01-23T02:27:54;6.00;99.90
28608;DHT22;15802;45.654;13.804;2023-01-23T02:30:20;6.00;99.90
28608;DHT22;15802;45.654;13.804;2023-01-23T02:32:46;6.00;99.90
28608;DHT22;15802;45.654;13.804;2023-01-23T02:35:21;6.00;99.90
28608;DHT22;15802;45.654;13.804;2023-01-23T02:37:51;6.00;99.90
28608;DHT22;15802;45.654;13.804;2023-01-23T02:40:19;6.00;99.90
28608;DHT22;15802;45.654;13.804;2023-01-23T02:42:54;6.00;99.90
28608;DHT22;15802;45.654;13.804;2023-01-23T02:45:20;6.00;99.90
28608;DHT22;15802;45.654;13.804;2023-01-23T02:47:46;6.10;99.90
28608;DHT22;15802;45.654;13.804;2023-01-23T02:50:12;6.00;99.90
28608;DHT22;15802;45.654;13.804;2023-01-23T02:52:38;6.00;99.90
28608;DHT22;15802;45.654;13.804;2023-01-23T02:55:04;6.00;99.90
28608;DHT22;15802;45.654;13.804;2023-01-23T02:57:30;6.00;99.90
28608;DHT22;15802;45.654;13.804;2023-01-23T02:59:55;6.00;99.90
28608;DHT22;15802;45.654;13.804;2023-01-23T03:02:40;6.00;99.90
28608;DHT22;15802;45.654;13.804;2023-01-23T03:05:06;6.10;99.90
28608;DHT22;15802;45.654;13.804;2023-01-23T03:07:32;6.10;99.90
28608;DHT22;15802;45.654;13.804;2023-01-23T03:09:58;6.10;99.90
28608;DHT22;15802;45.654;13.804;2023-01-23T03:12:24;6.10;99.90
28608;DHT22;15802;45.654;13.804;2023-01-23T03:14:50;6.10;99.90
28608;DHT22;15802;45.654;13.804;2023-01-23T03:17:20;6.10;99.90
28608;DHT22;15802;45.654;13.804;2023-01-23T03:19:45;6.00;99.90
28608;DHT22;15802;45.654;13.804;2023-01-23T03:22:12;6.00;99.90
28608;DHT22;15802;45.654;13.804;2023-01-23T03:24:37;6.00;99.90
28608;DHT22;15802;45.654;13.804;2023-01-23T03:27:04;6.00;99.90
28608;DHT22;15802;45.654;13.804;2023-01-23T03:29:29;6.00;99.90
28608;DHT22;15802;45.654;13.804;2023-01-23T03:32:14;5.90;99.90
28608;DHT22;15802;45.654;13.804;2023-01-23T03:34:41;5.90;99.90
28608;DHT22;15802;45.654;13.804;2023-01-23T03:37:08;5.90;99.90
28608;DHT22;15802;45.654;13.804;2023-01-23T03:39:35;5.90;99.90
28608;DHT22;15802;45.654;13.804;2023-01-23T03:42:19;5.90;99.90
28608;DHT22;15802;45.654;13.804;2023-01-23T03:44:45;5.90;99.90
28608;DHT22;15802;45.654;13.804;2023-01-23T03:47:11;5.90;99.90
28608;DHT22;15802;45.654;13.804;2023-01-23T03:49:42;5.80;99.90
28608;DHT22;15802;45.654;13.804;2023-01-23T03:52:08;5.80;99.90
28608;DHT22;15802;45.654;13.804;2023-01-23T03:54:37;5.80;99.90
28608;DHT22;15802;45.654;13.804;2023-01-23T03:57:03;5.80;99.90
28608;DHT22;15802;45.654;13.804;2023-01-23T03:59:28;5.80;99.90
28608;DHT22;15802;45.654;13.804;2023-01-23T04:01:54;5.80;99.90
28608;DHT22;15802;45.654;13.804;2023-01-23T04:04:22;5.80;99.90
28608;DHT22;15802;45.654;13.804;2023-01-23T04:06:48;5.80;99.90
28608;DHT22;15802;45.654;13.804;2023-01-23T04:09:14;5.80;99.90
28608;DHT22;15802;45.654;13.804;2023-01-23T04:11:39;5.80;99.90
28608;DHT22;15802;45.654;13.804;2023-01-23T04:14:05;5.80;99.90
28608;DHT22;15802;45.654;13.804;2023-01-23T04:16:31;5.70;99.90
28608;DHT22;15802;45.654;13.804;2023-01-23T04:18:57;5.80;99.90
28608;DHT22;15802;45.654;13.804;2023-01-23T04:21:23;5.70;99.90
28608;DHT22;15802;45.654;13.804;2023-01-23T04:23:50;5.70;99.90
28608;DHT22;15802;45.654;13.804;2023-01-23T04:26:16;5.70;99.90
28608;DHT22;15802;45.654;13.804;2023-01-23T04:28:41;5.70;99.90
28608;DHT22;15802;45.654;13.804;2023-01-23T04:31:08;5.60;99.90
28608;DHT22;15802;45.654;13.804;2023-01-23T04:33:34;5.70;99.90
28608;DHT22;15802;45.654;13.804;2023-01-23T04:36:02;5.70;99.90
28608;DHT22;15802;45.654;13.804;2023-01-23T04:38:30;5.70;99.90
28608;DHT22;15802;45.654;13.804;2023-01-23T04:40:56;5.70;99.90
28608;DHT22;15802;45.654;13.804;2023-01-23T04:43:22;5.70;99.90
28608;DHT22;15802;45.654;13.804;2023-01-23T04:45:51;5.70;99.90
28608;DHT22;15802;45.654;13.804;2023-01-23T04:48:17;5.70;99.90
28608;DHT22;15802;45.654;13.804;2023-01-23T04:50:43;5.70;99.90
28608;DHT22;15802;45.654;13.804;2023-01-23T04:53:09;5.70;99.90
28608;DHT22;15802;45.654;13.804;2023-01-23T04:55:35;5.80;99.90
28608;DHT22;15802;45.654;13.804;2023-01-23T04:58:04;5.80;99.90
28608;DHT22;15802;45.654;13.804;2023-01-23T05:00:30;5.70;99.90
28608;DHT22;15802;45.654;13.804;2023-01-23T05:02:56;5.80;99.90
28608;DHT22;15802;45.654;13.804;2023-01-23T05:05:24;5.80;99.90
28608;DHT22;15802;45.654;13.804;2023-01-23T05:07:51;5.70;99.90
28608;DHT22;15802;45.654;13.804;2023-01-23T05:10:19;5.70;99.90
28608;DHT22;15802;45.654;13.804;2023-01-23T05:12:45;5.70;99.90
28608;DHT22;15802;45.654;13.804;2023-01-23T05:15:12;5.70;99.90
28608;DHT22;15802;45.654;13.804;2023-01-23T05:17:38;5.80;99.90
28608;DHT22;15802;45.654;13.804;2023-01-23T05:20:04;5.90;99.90
28608;DHT22;15802;45.654;13.804;2023-01-23T05:22:30;5.90;99.90
28608;DHT22;15802;45.654;13.804;2023-01-23T05:24:56;5.90;99.90
28608;DHT22;15802;45.654;13.804;2023-01-23T05:27:22;5.80;99.90
28608;DHT22;15802;45.654;13.804;2023-01-23T05:29:48;5.80;99.90
28608;DHT22;15802;45.654;13.804;2023-01-23T05:32:14;5.90;99.90
28608;DHT22;15802;45.654;13.804;2023-01-23T05:34:40;5.90;99.90
28608;DHT22;15802;45.654;13.804;2023-01-23T05:37:06;5.90;99.90
28608;DHT22;15802;45.654;13.804;2023-01-23T05:39:32;5.90;99.90
28608;DHT22;15802;45.654;13.804;2023-01-23T05:42:00;6.00;99.90
28608;DHT22;15802;45.654;13.804;2023-01-23T05:44:26;6.00;99.90
28608;DHT22;15802;45.654;13.804;2023-01-23T05:46:53;6.00;99.90
28608;DHT22;15802;45.654;13.804;2023-01-23T05:49:19;5.90;99.90
28608;DHT22;15802;45.654;13.804;2023-01-23T05:51:47;5.90;99.90
28608;DHT22;15802;45.654;13.804;2023-01-23T05:54:13;5.90;99.90
28608;DHT22;15802;45.654;13.804;2023-01-23T05:56:39;5.80;99.90
28608;DHT22;15802;45.654;13.804;2023-01-23T05:59:05;5.90;99.90
28608;DHT22;15802;45.654;13.804;2023-01-23T06:01:31;5.90;99.90
28608;DHT22;15802;45.654;13.804;2023-01-23T06:03:57;5.80;99.90
28608;DHT22;15802;45.654;13.804;2023-01-23T06:06:23;5.90;99.90
28608;DHT22;15802;45.654;13.804;2023-01-23T06:08:49;5.90;99.90
28608;DHT22;15802;45.654;13.804;2023-01-23T06:11:15;5.90;99.90
28608;DHT22;15802;45.654;13.804;2023-01-23T06:13:41;5.90;99.90
28608;DHT22;15802;45.654;13.804;2023-01-23T06:16:07;5.90;99.90
28608;DHT22;15802;45.654;13.804;2023-01-23T06:18:34;5.90;99.90
28608;DHT22;15802;45.654;13.804;2023-01-23T06:21:00;5.90;99.90
28608;DHT22;15802;45.654;13.804;2023-01-23T06:23:27;5.90;99.90
28608;DHT22;15802;45.654;13.804;2023-01-23T06:25:53;5.90;99.90
28608;DHT22;15802;45.654;13.804;2023-01-23T06:28:19;5.90;99.90
28608;DHT22;15802;45.654;13.804;2023-01-23T06:30:44;6.00;99.90
28608;DHT22;15802;45.654;13.804;2023-01-23T06:33:10;6.00;99.90
28608;DHT22;15802;45.654;13.804;2023-01-23T06:35:40;6.00;99.90
28608;DHT22;15802;45.654;13.804;2023-01-23T06:38:06;6.00;99.90
28608;DHT22;15802;45.654;13.804;2023-01-23T06:40:32;6.00;99.90
28608;DHT22;15802;45.654;13.804;2023-01-23T06:42:57;5.90;99.90
28608;DHT22;15802;45.654;13.804;2023-01-23T06:45:23;5.80;99.90
28608;DHT22;15802;45.654;13.804;2023-01-23T06:47:51;5.80;99.90
28608;DHT22;15802;45.654;13.804;2023-01-23T06:50:24;5.80;99.90
28608;DHT22;15802;45.654;13.804;2023-01-23T06:52:53;5.80;99.90
28608;DHT22;15802;45.654;13.804;2023-01-23T06:55:24;5.80;99.90
28608;DHT22;15802;45.654;13.804;2023-01-23T06:57:54;5.80;99.90
28608;DHT22;15802;45.654;13.804;2023-01-23T07:00:20;5.80;99.90
28608;DHT22;15802;45.654;13.804;2023-01-23T07:02:56;5.80;99.90
28608;DHT22;15802;45.654;13.804;2023-01-23T07:05:24;5.90;99.90
28608;DHT22;15802;45.654;13.804;2023-01-23T07:07:52;5.90;99.90
28608;DHT22;15802;45.654;13.804;2023-01-23T07:10:22;5.90;99.90
28608;DHT22;15802;45.654;13.804;2023-01-23T07:12:48;5.90;99.90
28608;DHT22;15802;45.654;13.804;2023-01-23T07:15:15;6.00;99.90
28608;DHT22;15802;45.654;13.804;2023-01-23T07:17:41;5.90;99.90
28608;DHT22;15802;45.654;13.804;2023-01-23T07:20:08;5.90;99.90
28608;DHT22;15802;45.654;13.804;2023-01-23T07:22:34;5.80;99.90
28608;DHT22;15802;45.654;13.804;2023-01-23T07:25:00;5.90;99.90
28608;DHT22;15802;45.654;13.804;2023-01-23T07:27:28;5.80;99.90
28608;DHT22;15802;45.654;13.804;2023-01-23T07:29:54;5.80;99.90
28608;DHT22;15802;45.654;13.804;2023-01-23T07:32:20;5.80;99.90
28608;DHT22;15802;45.654;13.804;2023-01-23T07:34:48;5.80;99.90
28608;DHT22;15802;45.654;13.804;2023-01-23T07:37:16;5.80;99.90
28608;DHT22;15802;45.654;13.804;2023-01-23T07:39:42;5.80;99.90
28608;DHT22;15802;45.654;13.804;2023-01-23T07:42:10;5.90;99.90
28608;DHT22;15802;45.654;13.804;2023-01-23T07:44:36;5.80;99.90
28608;DHT22;15802;45.654;13.804;2023-01-23T07:47:04;5.80;99.90
28608;DHT22;15802;45.654;13.804;2023-01-23T07:49:30;5.80;99.90
28608;DHT22;15802;45.654;13.804;2023-01-23T07:51:58;5.80;99.90
28608;DHT22;15802;45.654;13.804;2023-01-23T07:54:26;5.70;99.90
28608;DHT22;15802;45.654;13.804;2023-01-23T07:56:56;5.70;99.90
28608;DHT22;15802;45.654;13.804;2023-01-23T07:59:21;5.70;99.90
28608;DHT22;15802;45.654;13.804;2023-01-23T08:01:50;5.70;99.90
28608;DHT22;15802;45.654;13.804;2023-01-23T08:04:18;5.70;99.90
28608;DHT22;15802;45.654;13.804;2023-01-23T08:06:48;5.80;99.90
28608;DHT22;15802;45.654;13.804;2023-01-23T08:09:14;5.80;99.90
28608;DHT22;15802;45.654;13.804;2023-01-23T08:11:40;5.80;99.90
28608;DHT22;15802;45.654;13.804;2023-01-23T08:14:06;5.90;99.90
28608;DHT22;15802;45.654;13.804;2023-01-23T08:16:32;5.90;99.90
28608;DHT22;15802;45.654;13.804;2023-01-23T08:18:58;5.90;99.90
28608;DHT22;15802;45.654;13.804;2023-01-23T08:21:23;6.00;99.90
28608;DHT22;15802;45.654;13.804;2023-01-23T08:23:52;6.00;99.90
28608;DHT22;15802;45.654;13.804;2023-01-23T08:26:21;6.00;99.90
28608;DHT22;15802;45.654;13.804;2023-01-23T08:28:50;6.00;99.90
28608;DHT22;15802;45.654;13.804;2023-01-23T08:31:18;6.00;99.90
28608;DHT22;15802;45.654;13.804;2023-01-23T08:33:49;6.00;99.90
28608;DHT22;15802;45.654;13.804;2023-01-23T08:36:15;6.00;99.90
28608;DHT22;15802;45.654;13.804;2023-01-23T08:38:46;6.00;99.90
28608;DHT22;15802;45.654;13.804;2023-01-23T08:41:14;6.10;99.90
28608;DHT22;15802;45.654;13.804;2023-01-23T08:43:43;6.20;99.90
28608;DHT22;15802;45.654;13.804;2023-01-23T08:46:10;6.10;99.90
28608;DHT22;15802;45.654;13.804;2023-01-23T08:48:36;6.10;99.90
28608;DHT22;15802;45.654;13.804;2023-01-23T08:51:06;6.10;99.90
28608;DHT22;15802;45.654;13.804;2023-01-23T08:53:37;6.00;99.90
28608;DHT22;15802;45.654;13.804;2023-01-23T08:56:05;6.10;99.90
28608;DHT22;15802;45.654;13.804;2023-01-23T08:58:31;6.10;99.90
28608;DHT22;15802;45.654;13.804;2023-01-23T09:00:58;6.10;99.90
28608;DHT22;15802;45.654;13.804;2023-01-23T09:03:24;6.10;99.90
28608;DHT22;15802;45.654;13.804;2023-01-23T09:05:50;6.20;99.90
28608;DHT22;15802;45.654;13.804;2023-01-23T09:08:16;6.20;99.90
28608;DHT22;15802;45.654;13.804;2023-01-23T09:10:42;6.20;99.90
28608;DHT22;15802;45.654;13.804;2023-01-23T09:13:13;6.20;99.90
28608;DHT22;15802;45.654;13.804;2023-01-23T09:15:39;6.30;99.90
28608;DHT22;15802;45.654;13.804;2023-01-23T09:18:06;6.30;99.90
28608;DHT22;15802;45.654;13.804;2023-01-23T09:20:32;6.40;99.90
28608;DHT22;15802;45.654;13.804;2023-01-23T09:22:58;6.40;99.90
28608;DHT22;15802;45.654;13.804;2023-01-23T09:25:24;6.40;99.90
28608;DHT22;15802;45.654;13.804;2023-01-23T09:27:53;6.60;99.90
28608;DHT22;15802;45.654;13.804;2023-01-23T09:30:19;6.60;99.90
28608;DHT22;15802;45.654;13.804;2023-01-23T09:32:44;6.60;99.90
28608;DHT22;15802;45.654;13.804;2023-01-23T09:35:10;6.70;99.90
28608;DHT22;15802;45.654;13.804;2023-01-23T09:37:37;6.70;99.90
28608;DHT22;15802;45.654;13.804;2023-01-23T09:40:22;6.80;99.90
28608;DHT22;15802;45.654;13.804;2023-01-23T09:42:51;6.80;99.90
28608;DHT22;15802;45.654;13.804;2023-01-23T09:45:21;6.90;99.90
28608;DHT22;15802;45.654;13.804;2023-01-23T09:51:07;7.00;99.90
28608;DHT22;15802;45.654;13.804;2023-01-23T09:53:40;7.00;99.90
28608;DHT22;15802;45.654;13.804;2023-01-23T09:56:29;7.00;99.90
28608;DHT22;15802;45.654;13.804;2023-01-23T10:02:10;7.10;99.90
28608;DHT22;15802;45.654;13.804;2023-01-23T10:04:41;7.20;99.90
28608;DHT22;15802;45.654;13.804;2023-01-23T10:07:26;7.20;99.90
28608;DHT22;15802;45.654;13.804;2023-01-23T10:10:13;7.30;99.90
28608;DHT22;15802;45.654;13.804;2023-01-23T10:13:06;7.40;99.90
28608;DHT22;15802;45.654;13.804;2023-01-23T10:18:46;7.40;99.90
28608;DHT22;15802;45.654;13.804;2023-01-23T10:21:31;7.40;99.90
28608;DHT22;15802;45.654;13.804;2023-01-23T10:29:58;7.30;99.90
28608;DHT22;15802;45.654;13.804;2023-01-23T10:32:28;7.30;99.90
28608;DHT22;15802;45.654;13.804;2023-01-23T10:35:11;7.40;99.90
28608;DHT22;15802;45.654;13.804;2023-01-23T10:37:58;7.40;99.90
28608;DHT22;15802;45.654;13.804;2023-01-23T10:40:28;7.40;99.90
28608;DHT22;15802;45.654;13.804;2023-01-23T10:49:43;7.50;99.90
28608;DHT22;15802;45.654;13.804;2023-01-23T10:52:34;7.50;99.90
28608;DHT22;15802;45.654;13.804;2023-01-23T10:55:24;7.50;99.90
28608;DHT22;15802;45.654;13.804;2023-01-23T10:58:01;7.40;99.90
28608;DHT22;15802;45.654;13.804;2023-01-23T11:00:53;7.40;99.90
28608;DHT22;15802;45.654;13.804;2023-01-23T11:06:11;7.50;99.90
28608;DHT22;15802;45.654;13.804;2023-01-23T11:08:58;7.60;99.90
28608;DHT22;15802;45.654;13.804;2023-01-23T11:11:28;7.60;99.90
28608;DHT22;15802;45.654;13.804;2023-01-23T11:14:30;7.60;99.90
28608;DHT22;15802;45.654;13.804;2023-01-23T11:17:18;7.60;99.90
28608;DHT22;15802;45.654;13.804;2023-01-23T11:19:50;7.60;99.90
28608;DHT22;15802;45.654;13.804;2023-01-23T11:22:39;7.60;99.90
28608;DHT22;15802;45.654;13.804;2023-01-23T11:25:42;7.60;99.90
28608;DHT22;15802;45.654;13.804;2023-01-23T11:28:31;7.70;99.90
28608;DHT22;15802;45.654;13.804;2023-01-23T11:31:13;7.70;99.90
28608;DHT22;15802;45.654;13.804;2023-01-23T11:33:48;7.80;99.90
28608;DHT22;15802;45.654;13.804;2023-01-23T11:36:47;7.80;99.90
28608;DHT22;15802;45.654;13.804;2023-01-23T11:39:44;7.90;99.90
28608;DHT22;15802;45.654;13.804;2023-01-23T11:42:18;7.90;99.90
28608;DHT22;15802;45.654;13.804;2023-01-23T11:44:46;7.90;99.90
28608;DHT22;15802;45.654;13.804;2023-01-23T11:47:34;7.90;99.90
28608;DHT22;15802;45.654;13.804;2023-01-23T11:50:24;7.90;99.90
28608;DHT22;15802;45.654;13.804;2023-01-23T11:56:27;7.80;99.90
28608;DHT22;15802;45.654;13.804;2023-01-23T11:59:17;7.80;99.90
28608;DHT22;15802;45.654;13.804;2023-01-23T12:02:06;7.90;99.90
28608;DHT22;15802;45.654;13.804;2023-01-23T12:05:09;7.90;99.90
28608;DHT22;15802;45.654;13.804;2023-01-23T12:11:18;7.90;99.90
28608;DHT22;15802;45.654;13.804;2023-01-23T12:17:09;7.70;99.90
28608;DHT22;15802;45.654;13.804;2023-01-23T12:22:48;7.70;99.90
28608;DHT22;15802;45.654;13.804;2023-01-23T12:25:32;7.70;99.90
28608;DHT22;15802;45.654;13.804;2023-01-23T12:34:24;7.80;99.90
28608;DHT22;15802;45.654;13.804;2023-01-23T12:37:30;7.80;99.90
28608;DHT22;15802;45.654;13.804;2023-01-23T12:40:12;7.80;99.90
28608;DHT22;15802;45.654;13.804;2023-01-23T12:42:52;7.90;99.90
28608;DHT22;15802;45.654;13.804;2023-01-23T12:45:25;7.90;99.90
28608;DHT22;15802;45.654;13.804;2023-01-23T12:48:01;7.80;99.90
28608;DHT22;15802;45.654;13.804;2023-01-23T12:50:55;7.80;99.90
28608;DHT22;15802;45.654;13.804;2023-01-23T12:53:35;7.70;99.90
28608;DHT22;15802;45.654;13.804;2023-01-23T12:56:22;7.70;99.90
28608;DHT22;15802;45.654;13.804;2023-01-23T12:58:59;7.70;99.90
28608;DHT22;15802;45.654;13.804;2023-01-23T13:04:49;7.70;99.90
28608;DHT22;15802;45.654;13.804;2023-01-23T13:07:27;7.70;99.90
28608;DHT22;15802;45.654;13.804;2023-01-23T13:10:20;7.70;99.90
28608;DHT22;15802;45.654;13.804;2023-01-23T13:12:53;7.70;99.90
28608;DHT22;15802;45.654;13.804;2023-01-23T13:15:22;7.70;99.90
28608;DHT22;15802;45.654;13.804;2023-01-23T13:18:00;7.70;99.90
28608;DHT22;15802;45.654;13.804;2023-01-23T13:20:31;7.60;99.90
28608;DHT22;15802;45.654;13.804;2023-01-23T13:23:24;7.60;99.90
28608;DHT22;15802;45.654;13.804;2023-01-23T13:26:23;7.70;99.90
28608;DHT22;15802;45.654;13.804;2023-01-23T13:28:52;7.70;99.90
28608;DHT22;15802;45.654;13.804;2023-01-23T13:31:40;7.70;99.90
28608;DHT22;15802;45.654;13.804;2023-01-23T13:34:40;7.70;99.90
28608;DHT22;15802;45.654;13.804;2023-01-23T13:37:30;7.80;99.90
28608;DHT22;15802;45.654;13.804;2023-01-23T13:40:23;7.90;99.90
28608;DHT22;15802;45.654;13.804;2023-01-23T13:42:49;7.90;99.90
28608;DHT22;15802;45.654;13.804;2023-01-23T13:45:20;7.90;99.90
28608;DHT22;15802;45.654;13.804;2023-01-23T13:47:52;7.80;99.90
28608;DHT22;15802;45.654;13.804;2023-01-23T13:50:49;7.70;99.90
28608;DHT22;15802;45.654;13.804;2023-01-23T13:53:24;7.70;99.90
28608;DHT22;15802;45.654;13.804;2023-01-23T13:56:16;7.70;99.90
28608;DHT22;15802;45.654;13.804;2023-01-23T13:59:11;7.60;99.90
28608;DHT22;15802;45.654;13.804;2023-01-23T14:01:50;7.60;99.90
28608;DHT22;15802;45.654;13.804;2023-01-23T14:04:38;7.60;99.90
28608;DHT22;15802;45.654;13.804;2023-01-23T14:07:31;7.50;99.90
28608;DHT22;15802;45.654;13.804;2023-01-23T14:10:28;7.50;99.90
28608;DHT22;15802;45.654;13.804;2023-01-23T14:13:14;7.50;99.90
28608;DHT22;15802;45.654;13.804;2023-01-23T14:15:46;7.50;99.90
28608;DHT22;15802;45.654;13.804;2023-01-23T14:18:44;7.50;99.90
28608;DHT22;15802;45.654;13.804;2023-01-23T14:21:24;7.50;99.90
28608;DHT22;15802;45.654;13.804;2023-01-23T14:23:54;7.40;99.90
28608;DHT22;15802;45.654;13.804;2023-01-23T14:26:25;7.40;99.90
28608;DHT22;15802;45.654;13.804;2023-01-23T14:28:58;7.40;99.90
28608;DHT22;15802;45.654;13.804;2023-01-23T14:31:33;7.40;99.90
28608;DHT22;15802;45.654;13.804;2023-01-23T14:34:15;7.40;99.90
28608;DHT22;15802;45.654;13.804;2023-01-23T14:36:47;7.40;99.90
28608;DHT22;15802;45.654;13.804;2023-01-23T14:39:17;7.50;99.90
28608;DHT22;15802;45.654;13.804;2023-01-23T14:41:44;7.50;99.90
28608;DHT22;15802;45.654;13.804;2023-01-23T14:44:18;7.60;99.90
28608;DHT22;15802;45.654;13.804;2023-01-23T14:46:45;7.60;99.90
28608;DHT22;15802;45.654;13.804;2023-01-23T14:49:13;7.70;99.90
28608;DHT22;15802;45.654;13.804;2023-01-23T14:51:59;7.70;99.90
28608;DHT22;15802;45.654;13.804;2023-01-23T14:54:27;7.70;99.90
28608;DHT22;15802;45.654;13.804;2023-01-23T14:56:56;7.60;99.90
28608;DHT22;15802;45.654;13.804;2023-01-23T14:59:29;7.60;99.90
28608;DHT22;15802;45.654;13.804;2023-01-23T15:01:59;7.60;99.90
28608;DHT22;15802;45.654;13.804;2023-01-23T15:04:27;7.50;99.90
28608;DHT22;15802;45.654;13.804;2023-01-23T15:06:58;7.50;99.90
28608;DHT22;15802;45.654;13.804;2023-01-23T15:12:15;7.40;99.90
28608;DHT22;15802;45.654;13.804;2023-01-23T15:14:42;7.40;99.90
28608;DHT22;15802;45.654;13.804;2023-01-23T15:17:15;7.40;99.90
28608;DHT22;15802;45.654;13.804;2023-01-23T15:19:54;7.40;99.90
28608;DHT22;15802;45.654;13.804;2023-01-23T15:22:29;7.40;99.90
28608;DHT22;15802;45.654;13.804;2023-01-23T15:24:55;7.30;99.90
28608;DHT22;15802;45.654;13.804;2023-01-23T15:27:30;7.30;99.90
28608;DHT22;15802;45.654;13.804;2023-01-23T15:33:02;7.40;99.90
28608;DHT22;15802;45.654;13.804;2023-01-23T15:35:33;7.50;99.90
28608;DHT22;15802;45.654;13.804;2023-01-23T15:38:00;7.60;99.90
28608;DHT22;15802;45.654;13.804;2023-01-23T15:40:35;7.60;99.90
28608;DHT22;15802;45.654;13.804;2023-01-23T15:43:16;7.60;99.90
28608;DHT22;15802;45.654;13.804;2023-01-23T15:46:23;7.60;99.90
28608;DHT22;15802;45.654;13.804;2023-01-23T15:49:17;7.70;99.90
28608;DHT22;15802;45.654;13.804;2023-01-23T15:51:43;7.60;99.90
28608;DHT22;15802;45.654;13.804;2023-01-23T15:54:15;7.60;99.90
28608;DHT22;15802;45.654;13.804;2023-01-23T15:59:57;7.60;99.90
28608;DHT22;15802;45.654;13.804;2023-01-23T16:02:29;7.60;99.90
28608;DHT22;15802;45.654;13.804;2023-01-23T16:04:55;7.60;99.90
28608;DHT22;15802;45.654;13.804;2023-01-23T16:07:24;7.60;99.90
28608;DHT22;15802;45.654;13.804;2023-01-23T16:09:50;7.60;99.90
28608;DHT22;15802;45.654;13.804;2023-01-23T16:12:18;7.50;99.90
28608;DHT22;15802;45.654;13.804;2023-01-23T16:14:46;7.40;99.90
28608;DHT22;15802;45.654;13.804;2023-01-23T16:17:12;7.40;99.90
28608;DHT22;15802;45.654;13.804;2023-01-23T16:19:38;7.40;99.90
28608;DHT22;15802;45.654;13.804;2023-01-23T16:22:04;7.50;99.90
28608;DHT22;15802;45.654;13.804;2023-01-23T16:24:35;7.50;99.90
28608;DHT22;15802;45.654;13.804;2023-01-23T16:27:02;7.50;99.90
28608;DHT22;15802;45.654;13.804;2023-01-23T16:29:31;7.40;99.90
28608;DHT22;15802;45.654;13.804;2023-01-23T16:31:57;7.40;99.90
28608;DHT22;15802;45.654;13.804;2023-01-23T16:34:24;7.40;99.90
28608;DHT22;15802;45.654;13.804;2023-01-23T16:36:54;7.40;99.90
28608;DHT22;15802;45.654;13.804;2023-01-23T16:39:25;7.40;99.90
28608;DHT22;15802;45.654;13.804;2023-01-23T16:41:51;7.30;99.90
28608;DHT22;15802;45.654;13.804;2023-01-23T16:44:21;7.30;99.90
28608;DHT22;15802;45.654;13.804;2023-01-23T16:46:50;7.30;99.90
28608;DHT22;15802;45.654;13.804;2023-01-23T16:49:16;7.20;99.90
28608;DHT22;15802;45.654;13.804;2023-01-23T16:51:56;7.30;99.90
28608;DHT22;15802;45.654;13.804;2023-01-23T16:54:23;7.30;99.90